createdAt,value
2023-08-08T00:02:03.240Z,13.92
2023-08-08T00:04:36.308Z,13.91
2023-08-08T00:07:09.113Z,13.89
2023-08-08T00:09:43.485Z,13.88
2023-08-08T00:12:16.780Z,13.86
2023-08-08T00:14:49.906Z,13.86
2023-08-08T00:17:22.944Z,13.86
2023-08-08T00:19:55.700Z,13.86
2023-08-08T00:22:28.535Z,13.87
2023-08-08T00:25:03.192Z,13.84
2023-08-08T00:27:36.367Z,13.85
2023-08-08T00:30:09.770Z,13.85
2023-08-08T00:32:42.585Z,13.84
2023-08-08T00:35:15.313Z,13.85
2023-08-08T00:37:48.207Z,13.85
2023-08-08T00:40:22.856Z,13.85
2023-08-08T00:42:56.045Z,13.84
2023-08-08T00:45:29.015Z,13.86
2023-08-08T00:48:01.866Z,13.88
2023-08-08T00:50:34.816Z,13.88
2023-08-08T00:53:07.938Z,13.89
2023-08-08T00:55:42.197Z,13.89
2023-08-08T00:58:15.396Z,13.91
2023-08-08T01:00:48.238Z,13.90
2023-08-08T01:03:20.991Z,13.92
2023-08-08T01:05:56.238Z,13.92
2023-08-08T01:08:35.341Z,13.94
2023-08-08T01:11:09.618Z,13.95
2023-08-08T01:13:42.785Z,13.94
2023-08-08T01:16:16.311Z,13.94
2023-08-08T01:18:49.957Z,13.92
2023-08-08T01:21:22.961Z,13.88
2023-08-08T01:23:58.621Z,13.85
2023-08-08T01:26:33.618Z,13.80
2023-08-08T01:29:06.600Z,13.75
2023-08-08T01:31:39.738Z,13.69
2023-08-08T01:34:12.804Z,13.62
2023-08-08T01:36:48.668Z,13.56
2023-08-08T01:39:27.013Z,13.51
2023-08-08T01:42:02.105Z,13.43
2023-08-08T01:44:36.224Z,13.37
2023-08-08T01:47:09.830Z,13.31
2023-08-08T01:49:42.766Z,13.23
2023-08-08T01:52:15.518Z,13.18
2023-08-08T01:54:48.440Z,13.13
2023-08-08T01:57:23.665Z,13.05
2023-08-08T01:59:56.424Z,13.00
2023-08-08T02:02:29.481Z,12.96
2023-08-08T02:05:02.335Z,12.90
2023-08-08T02:07:35.200Z,12.84
2023-08-08T02:10:08.638Z,12.78
2023-08-08T02:12:43.015Z,12.75
2023-08-08T02:15:16.007Z,12.68
2023-08-08T02:17:49.261Z,12.65
2023-08-08T02:20:22.264Z,12.61
2023-08-08T02:22:54.998Z,12.55
2023-08-08T02:25:27.857Z,12.52
2023-08-08T02:28:02.234Z,12.47
2023-08-08T02:30:34.989Z,12.44
2023-08-08T02:33:07.974Z,12.40
2023-08-08T02:35:40.783Z,12.36
2023-08-08T02:38:13.625Z,12.31
2023-08-08T02:40:46.445Z,12.26
2023-08-08T02:43:20.740Z,12.23
2023-08-08T02:45:53.677Z,12.18
2023-08-08T02:48:26.606Z,12.16
2023-08-08T02:50:59.544Z,12.12
2023-08-08T02:53:32.599Z,12.10
2023-08-08T02:56:05.534Z,12.05
2023-08-08T02:58:39.861Z,12.04
2023-08-08T03:01:14.626Z,12.01
2023-08-08T03:03:49.976Z,11.97
2023-08-08T03:06:23.052Z,11.97
2023-08-08T03:08:55.770Z,11.92
2023-08-08T03:11:28.692Z,11.89
2023-08-08T03:14:02.997Z,11.87
2023-08-08T03:16:35.795Z,11.85
2023-08-08T03:19:08.526Z,11.80
2023-08-08T03:21:41.465Z,11.77
2023-08-08T03:24:14.264Z,11.77
2023-08-08T03:26:47.283Z,11.75
2023-08-08T03:29:21.348Z,11.71
2023-08-08T03:31:54.075Z,11.69
2023-08-08T03:34:26.889Z,11.67
2023-08-08T03:36:59.704Z,11.65
2023-08-08T03:39:32.576Z,11.63
2023-08-08T03:42:08.485Z,11.60
2023-08-08T03:44:42.918Z,11.58
2023-08-08T03:47:19.727Z,11.55
2023-08-08T03:49:56.173Z,11.55
2023-08-08T03:52:29.089Z,11.53
2023-08-08T03:55:01.946Z,11.49
2023-08-08T03:57:34.817Z,11.49
2023-08-08T04:00:10.396Z,11.46
2023-08-08T04:02:43.309Z,11.44
2023-08-08T04:05:16.540Z,11.42
2023-08-08T04:07:49.448Z,11.42
2023-08-08T04:10:22.350Z,11.41
2023-08-08T04:12:55.428Z,11.39
2023-08-08T04:15:29.586Z,11.38
2023-08-08T04:18:02.410Z,11.38
2023-08-08T04:20:35.621Z,11.36
2023-08-08T04:23:08.399Z,11.38
2023-08-08T04:25:41.615Z,11.39
2023-08-08T04:28:14.511Z,11.40
2023-08-08T04:30:48.928Z,11.40
2023-08-08T04:33:21.866Z,11.40
2023-08-08T04:35:54.586Z,11.42
2023-08-08T04:38:27.885Z,11.45
2023-08-08T04:41:01.370Z,11.46
2023-08-08T04:43:34.142Z,11.49
2023-08-08T04:46:08.444Z,11.52
2023-08-08T04:48:41.433Z,11.53
2023-08-08T04:51:14.427Z,11.56
2023-08-08T04:53:47.299Z,11.60
2023-08-08T04:56:20.041Z,11.63
2023-08-08T04:58:52.941Z,11.68
2023-08-08T05:01:27.379Z,11.72
2023-08-08T05:04:00.266Z,11.77
2023-08-08T05:06:33.051Z,11.85
2023-08-08T05:09:06.054Z,11.93
2023-08-08T05:11:38.737Z,11.98
2023-08-08T05:14:11.519Z,12.06
2023-08-08T05:16:45.755Z,12.17
2023-08-08T05:19:18.851Z,12.25
2023-08-08T05:21:52.742Z,12.38
2023-08-08T05:24:25.659Z,12.57
2023-08-08T05:26:58.472Z,12.80
2023-08-08T05:29:31.384Z,13.05
2023-08-08T05:32:07.845Z,13.36
2023-08-08T05:34:40.884Z,13.68
2023-08-08T05:37:17.251Z,14.00
2023-08-08T05:39:50.727Z,14.32
2023-08-08T05:42:23.496Z,14.68
2023-08-08T05:44:56.346Z,14.99
2023-08-08T05:47:30.726Z,15.32
2023-08-08T05:50:03.810Z,15.64
2023-08-08T05:52:36.570Z,16.01
2023-08-08T05:55:09.749Z,16.36
2023-08-08T05:57:42.521Z,16.69
2023-08-08T06:00:16.485Z,17.03
2023-08-08T06:02:50.869Z,17.35
2023-08-08T06:05:24.417Z,17.66
2023-08-08T06:07:57.520Z,17.98
2023-08-08T06:10:30.373Z,18.25
2023-08-08T06:13:05.029Z,18.54
2023-08-08T06:15:38.008Z,18.78
2023-08-08T06:18:12.354Z,19.03
2023-08-08T06:20:45.876Z,19.24
2023-08-08T06:23:18.744Z,19.44
2023-08-08T06:25:51.777Z,19.62
2023-08-08T06:28:24.767Z,19.79
2023-08-08T06:30:57.628Z,19.96
2023-08-08T06:33:32.011Z,20.14
2023-08-08T06:36:05.487Z,20.29
2023-08-08T06:38:38.476Z,20.45
2023-08-08T06:41:11.446Z,20.62
2023-08-08T06:43:44.296Z,20.75
2023-08-08T06:46:17.556Z,20.87
2023-08-08T06:48:54.111Z,20.98
2023-08-08T06:51:27.165Z,21.06
2023-08-08T06:54:00.000Z,21.13
2023-08-08T06:56:32.875Z,21.18
2023-08-08T06:59:05.780Z,21.26
2023-08-08T07:01:39.001Z,21.31
2023-08-08T07:04:13.994Z,21.36
2023-08-08T07:06:46.918Z,21.43
2023-08-08T07:09:19.679Z,21.49
2023-08-08T07:11:52.683Z,21.51
2023-08-08T07:14:25.499Z,21.53
2023-08-08T07:17:00.517Z,21.52
2023-08-08T07:19:35.078Z,21.52
2023-08-08T07:22:08.137Z,21.54
2023-08-08T07:24:40.935Z,21.53
2023-08-08T07:27:13.688Z,21.53
2023-08-08T07:29:46.420Z,21.55
2023-08-08T07:32:19.339Z,21.59
2023-08-08T07:34:53.438Z,21.65
2023-08-08T07:37:26.383Z,21.73
2023-08-08T07:39:59.067Z,21.82
2023-08-08T07:42:32.084Z,21.94
2023-08-08T07:45:05.269Z,22.04
2023-08-08T07:47:38.205Z,22.14
2023-08-08T07:50:13.392Z,22.20
2023-08-08T07:52:46.370Z,22.28
2023-08-08T07:55:19.311Z,22.35
2023-08-08T07:57:52.094Z,22.43
2023-08-08T08:00:25.212Z,22.52
2023-08-08T08:02:58.195Z,22.63
2023-08-08T08:05:33.298Z,22.76
2023-08-08T08:08:06.379Z,22.91
2023-08-08T08:10:39.346Z,23.08
2023-08-08T08:13:13.136Z,23.22
2023-08-08T08:15:46.088Z,23.39
2023-08-08T08:18:19.684Z,23.54
2023-08-08T08:20:53.884Z,23.72
2023-08-08T08:23:26.577Z,23.91
2023-08-08T08:25:59.817Z,24.08
2023-08-08T08:28:32.615Z,24.28
2023-08-08T08:31:06.458Z,24.44
2023-08-08T08:33:40.675Z,24.58
2023-08-08T08:36:14.926Z,24.71
2023-08-08T08:38:48.019Z,24.85
2023-08-08T08:41:22.368Z,24.98
2023-08-08T08:43:55.971Z,25.08
2023-08-08T08:46:29.350Z,25.16
2023-08-08T08:49:02.314Z,25.26
2023-08-08T08:51:36.801Z,25.35
2023-08-08T08:54:09.647Z,25.43
2023-08-08T08:56:43.405Z,25.48
2023-08-08T08:59:16.398Z,25.53
2023-08-08T09:01:49.695Z,25.56
2023-08-08T09:04:23.582Z,25.59
2023-08-08T09:06:58.212Z,25.59
2023-08-08T09:09:33.829Z,25.56
2023-08-08T09:12:07.740Z,25.55
2023-08-08T09:14:42.856Z,25.56
2023-08-08T09:17:16.499Z,25.56
2023-08-08T09:19:51.476Z,25.61
2023-08-08T09:22:25.680Z,25.64
2023-08-08T09:24:58.712Z,25.69
2023-08-08T09:27:31.559Z,25.75
2023-08-08T09:30:05.170Z,25.84
2023-08-08T09:32:38.456Z,25.94
2023-08-08T09:35:12.840Z,26.02
2023-08-08T09:37:46.990Z,26.09
2023-08-08T09:40:19.905Z,26.14
2023-08-08T09:42:53.770Z,26.17
2023-08-08T09:45:26.733Z,26.20
2023-08-08T09:48:01.306Z,26.20
2023-08-08T09:50:36.012Z,26.20
2023-08-08T09:53:10.763Z,26.19
2023-08-08T09:55:43.849Z,26.16
2023-08-08T09:58:17.229Z,26.15
2023-08-08T10:00:51.549Z,26.15
2023-08-08T10:03:25.150Z,26.14
2023-08-08T10:05:57.916Z,26.14
2023-08-08T10:08:32.728Z,26.15
2023-08-08T10:11:07.912Z,26.15
2023-08-08T10:13:40.981Z,26.14
2023-08-08T10:16:13.987Z,26.14
2023-08-08T10:18:47.211Z,26.15
2023-08-08T10:21:20.188Z,26.18
2023-08-08T10:24:04.798Z,26.24
2023-08-08T10:26:52.384Z,26.30
2023-08-08T10:29:26.897Z,26.41
2023-08-08T10:32:01.071Z,26.51
2023-08-08T10:34:41.181Z,26.63
2023-08-08T10:37:14.336Z,26.76
2023-08-08T10:39:55.679Z,26.91
2023-08-08T10:42:29.565Z,27.05
2023-08-08T10:45:03.599Z,27.19
2023-08-08T10:47:37.639Z,27.32
2023-08-08T10:50:12.909Z,27.39
2023-08-08T10:52:58.166Z,27.45
2023-08-08T10:55:35.693Z,27.49
2023-08-08T10:58:09.707Z,27.48
2023-08-08T11:00:42.484Z,27.52
2023-08-08T11:03:15.583Z,27.52
2023-08-08T11:05:52.429Z,27.52
2023-08-08T11:08:25.266Z,27.49
2023-08-08T11:10:59.606Z,27.43
2023-08-08T11:13:32.445Z,27.35
2023-08-08T11:16:05.320Z,27.24
2023-08-08T11:18:38.091Z,27.13
2023-08-08T11:21:18.870Z,27.00
2023-08-08T11:23:51.732Z,26.85
2023-08-08T11:26:28.434Z,26.69
2023-08-08T11:29:01.714Z,26.52
2023-08-08T11:31:34.983Z,26.36
2023-08-08T11:34:07.740Z,26.22
2023-08-08T11:36:40.886Z,26.14
2023-08-08T11:39:14.046Z,26.09
2023-08-08T11:41:48.222Z,26.07
2023-08-08T11:44:21.909Z,26.09
2023-08-08T11:46:54.784Z,26.13
2023-08-08T11:49:27.545Z,26.20
2023-08-08T11:52:01.288Z,26.27
2023-08-08T11:54:34.481Z,26.35
2023-08-08T11:57:09.312Z,26.45
2023-08-08T11:59:42.736Z,26.50
2023-08-08T12:02:15.568Z,26.56
2023-08-08T12:04:48.703Z,26.63
2023-08-08T12:07:21.488Z,26.66
2023-08-08T12:09:55.050Z,26.69
2023-08-08T12:12:39.427Z,26.71
2023-08-08T12:15:16.541Z,26.70
2023-08-08T12:17:49.732Z,26.70
2023-08-08T12:20:22.491Z,26.70
2023-08-08T12:22:55.312Z,26.68
2023-08-08T12:25:28.607Z,26.69
2023-08-08T12:28:03.802Z,26.72
2023-08-08T12:30:36.529Z,26.77
2023-08-08T12:33:09.354Z,26.86
2023-08-08T12:35:42.469Z,26.96
2023-08-08T12:38:15.414Z,27.06
2023-08-08T12:40:48.175Z,27.20
2023-08-08T12:43:22.307Z,27.31
2023-08-08T12:45:55.024Z,27.45
2023-08-08T12:48:27.699Z,27.57
2023-08-08T12:51:00.481Z,27.66
2023-08-08T12:53:33.216Z,27.75
2023-08-08T12:56:06.376Z,27.86
2023-08-08T12:58:41.989Z,27.95
2023-08-08T13:01:14.696Z,28.02
2023-08-08T13:03:51.482Z,28.08
2023-08-08T13:06:28.791Z,28.13
2023-08-08T13:09:01.553Z,28.18
2023-08-08T13:11:34.332Z,28.26
2023-08-08T13:14:08.712Z,28.34
2023-08-08T13:16:41.556Z,28.42
2023-08-08T13:19:14.292Z,28.50
2023-08-08T13:21:47.097Z,28.60
2023-08-08T13:24:20.013Z,28.70
2023-08-08T13:26:52.747Z,28.80
2023-08-08T13:29:26.915Z,28.86
2023-08-08T13:32:00.067Z,28.88
2023-08-08T13:34:33.053Z,28.88
2023-08-08T13:37:06.247Z,28.86
2023-08-08T13:39:39.032Z,28.85
2023-08-08T13:42:11.792Z,28.85
2023-08-08T13:44:45.989Z,28.89
2023-08-08T13:47:18.708Z,28.93
2023-08-08T13:49:51.433Z,28.96
2023-08-08T13:52:24.118Z,28.96
2023-08-08T13:54:56.864Z,28.94
2023-08-08T13:57:29.709Z,28.90
2023-08-08T14:00:04.341Z,28.85
2023-08-08T14:02:37.260Z,28.80
2023-08-08T14:05:11.385Z,28.76
2023-08-08T14:07:44.267Z,28.74
2023-08-08T14:10:17.000Z,28.69
2023-08-08T14:12:49.831Z,28.66
2023-08-08T14:15:24.550Z,28.60
2023-08-08T14:17:57.423Z,28.53
2023-08-08T14:20:30.191Z,28.45
2023-08-08T14:23:03.102Z,28.33
2023-08-08T14:25:36.023Z,28.19
2023-08-08T14:28:08.737Z,28.02
2023-08-08T14:30:42.846Z,27.85
2023-08-08T14:33:16.007Z,27.63
2023-08-08T14:35:48.876Z,27.40
2023-08-08T14:38:25.715Z,27.20
2023-08-08T14:40:59.096Z,27.00
2023-08-08T14:43:31.903Z,26.81
2023-08-08T14:46:06.107Z,26.63
2023-08-08T14:48:38.850Z,26.49
2023-08-08T14:51:13.318Z,26.36
2023-08-08T14:53:46.154Z,26.24
2023-08-08T14:56:18.864Z,26.14
2023-08-08T14:58:51.560Z,26.05
2023-08-08T15:01:26.143Z,25.99
2023-08-08T15:03:59.791Z,25.90
2023-08-08T15:06:33.064Z,25.84
2023-08-08T15:09:05.960Z,25.79
2023-08-08T15:11:38.922Z,25.75
2023-08-08T15:14:11.819Z,25.72
2023-08-08T15:16:50.240Z,25.69
2023-08-08T15:19:23.183Z,25.66
2023-08-08T15:21:56.500Z,25.63
2023-08-08T15:24:29.503Z,25.59
2023-08-08T15:27:02.589Z,25.53
2023-08-08T15:29:35.681Z,25.47
2023-08-08T15:32:10.166Z,25.40
2023-08-08T15:34:42.996Z,25.33
2023-08-08T15:37:15.867Z,25.28
2023-08-08T15:39:51.056Z,25.22
2023-08-08T15:42:23.892Z,25.19
2023-08-08T15:44:56.638Z,25.13
2023-08-08T15:47:30.994Z,25.09
2023-08-08T15:50:04.048Z,25.04
2023-08-08T15:52:37.135Z,25.00
2023-08-08T15:55:11.219Z,24.95
2023-08-08T15:57:43.905Z,24.90
2023-08-08T16:00:17.334Z,24.86
2023-08-08T16:02:51.898Z,24.78
2023-08-08T16:05:24.680Z,24.73
2023-08-08T16:07:57.357Z,24.71
2023-08-08T16:10:30.273Z,24.67
2023-08-08T16:13:03.015Z,24.64
2023-08-08T16:15:35.894Z,24.59
2023-08-08T16:18:10.277Z,24.58
2023-08-08T16:20:43.251Z,24.58
2023-08-08T16:23:16.038Z,24.58
2023-08-08T16:25:48.898Z,24.58
2023-08-08T16:28:21.624Z,24.57
2023-08-08T16:30:54.355Z,24.58
2023-08-08T16:33:28.671Z,24.58
2023-08-08T16:36:01.774Z,24.56
2023-08-08T16:38:34.435Z,24.55
2023-08-08T16:41:07.702Z,24.49
2023-08-08T16:43:40.518Z,24.44
2023-08-08T16:46:13.418Z,24.40
2023-08-08T16:48:47.814Z,24.35
2023-08-08T16:51:20.629Z,24.28
2023-08-08T16:53:53.742Z,24.22
2023-08-08T16:56:26.622Z,24.14
2023-08-08T16:58:59.881Z,24.08
2023-08-08T17:01:32.706Z,24.00
2023-08-08T17:04:08.465Z,23.92
2023-08-08T17:06:41.305Z,23.82
2023-08-08T17:09:14.703Z,23.75
2023-08-08T17:11:47.341Z,23.67
2023-08-08T17:14:20.145Z,23.61
2023-08-08T17:16:54.484Z,23.51
2023-08-08T17:19:30.302Z,23.45
2023-08-08T17:22:03.445Z,23.37
2023-08-08T17:24:40.418Z,23.33
2023-08-08T17:27:13.861Z,23.29
2023-08-08T17:29:46.661Z,23.26
2023-08-08T17:32:19.388Z,23.22
2023-08-08T17:34:53.513Z,23.18
2023-08-08T17:37:26.277Z,23.15
2023-08-08T17:39:59.028Z,23.11
2023-08-08T17:42:31.870Z,23.08
2023-08-08T17:45:05.542Z,23.03
2023-08-08T17:47:39.585Z,22.99
2023-08-08T17:50:13.775Z,22.96
2023-08-08T17:52:46.585Z,22.89
2023-08-08T17:55:19.529Z,22.82
2023-08-08T17:57:52.275Z,22.76
2023-08-08T18:00:25.297Z,22.69
2023-08-08T18:02:58.956Z,22.61
2023-08-08T18:05:33.202Z,22.54
2023-08-08T18:08:06.488Z,22.46
2023-08-08T18:10:39.444Z,22.39
2023-08-08T18:13:12.283Z,22.32
2023-08-08T18:15:45.101Z,22.25
2023-08-08T18:18:17.809Z,22.17
2023-08-08T18:20:52.061Z,22.11
2023-08-08T18:23:24.960Z,22.03
2023-08-08T18:25:57.740Z,21.97
2023-08-08T18:28:30.487Z,21.88
2023-08-08T18:31:03.495Z,21.78
2023-08-08T18:33:36.467Z,21.71
2023-08-08T18:36:10.592Z,21.61
2023-08-08T18:38:43.878Z,21.51
2023-08-08T18:41:16.741Z,21.38
2023-08-08T18:43:49.413Z,21.28
2023-08-08T18:46:22.487Z,21.16
2023-08-08T18:48:55.478Z,21.07
2023-08-08T18:51:29.734Z,20.95
2023-08-08T18:54:02.419Z,20.84
2023-08-08T18:56:35.180Z,20.75
2023-08-08T18:59:07.885Z,20.65
2023-08-08T19:01:40.851Z,20.55
2023-08-08T19:04:14.158Z,20.44
2023-08-08T19:06:48.231Z,20.37
2023-08-08T19:09:21.144Z,20.26
2023-08-08T19:11:53.936Z,20.17
2023-08-08T19:14:27.815Z,20.10
2023-08-08T19:17:00.598Z,20.02
2023-08-08T19:19:33.559Z,19.95
2023-08-08T19:22:07.831Z,19.88
2023-08-08T19:24:40.666Z,19.83
2023-08-08T19:27:13.640Z,19.76
2023-08-08T19:29:46.595Z,19.71
2023-08-08T19:32:19.521Z,19.65
2023-08-08T19:34:53.572Z,19.57
2023-08-08T19:37:27.770Z,19.53
2023-08-08T19:40:00.581Z,19.46
2023-08-08T19:42:33.428Z,19.39
2023-08-08T19:45:06.695Z,19.31
2023-08-08T19:47:39.603Z,19.24
2023-08-08T19:50:12.344Z,19.16
2023-08-08T19:52:48.292Z,19.13
2023-08-08T19:55:21.178Z,19.05
2023-08-08T19:58:00.886Z,19.00
2023-08-08T20:00:33.605Z,18.97
2023-08-08T20:03:06.802Z,18.92
2023-08-08T20:05:39.655Z,18.91
2023-08-08T20:08:14.118Z,18.89
2023-08-08T20:10:46.884Z,18.88
2023-08-08T20:13:19.681Z,18.87
2023-08-08T20:15:52.469Z,18.87
2023-08-08T20:18:25.793Z,18.82
2023-08-08T20:20:58.885Z,18.82
2023-08-08T20:23:33.319Z,18.80
2023-08-08T20:26:06.011Z,18.77
2023-08-08T20:28:38.729Z,18.76
2023-08-08T20:31:11.614Z,18.73
2023-08-08T20:33:46.331Z,18.71
2023-08-08T20:36:19.161Z,18.68
2023-08-08T20:38:53.349Z,18.66
2023-08-08T20:41:26.090Z,18.62
2023-08-08T20:43:58.786Z,18.59
2023-08-08T20:46:31.513Z,18.57
2023-08-08T20:49:04.406Z,18.54
2023-08-08T20:51:37.623Z,18.51
2023-08-08T20:54:11.802Z,18.47
2023-08-08T20:56:46.022Z,18.45
2023-08-08T20:59:18.748Z,18.43
2023-08-08T21:01:51.693Z,18.40
2023-08-08T21:04:24.797Z,18.38
2023-08-08T21:06:57.751Z,18.34
2023-08-08T21:09:31.907Z,18.32
2023-08-08T21:12:04.809Z,18.28
2023-08-08T21:14:37.657Z,18.27
2023-08-08T21:17:10.481Z,18.22
2023-08-08T21:19:43.749Z,18.20
2023-08-08T21:22:16.608Z,18.16
2023-08-08T21:24:50.977Z,18.15
2023-08-08T21:27:24.305Z,18.12
2023-08-08T21:29:57.130Z,18.08
2023-08-08T21:32:29.934Z,18.05
2023-08-08T21:35:02.685Z,18.03
2023-08-08T21:37:35.616Z,18.01
2023-08-08T21:40:11.682Z,17.99
2023-08-08T21:42:44.489Z,17.98
2023-08-08T21:45:17.316Z,17.96
2023-08-08T21:47:50.092Z,17.95
2023-08-08T21:50:23.093Z,17.94
2023-08-08T21:52:56.230Z,17.94
2023-08-08T21:55:30.605Z,17.93
2023-08-08T21:58:03.810Z,17.92
2023-08-08T22:00:36.568Z,17.92
2023-08-08T22:03:09.516Z,17.90
2023-08-08T22:05:53.294Z,17.90
2023-08-08T22:08:26.114Z,17.91
2023-08-08T22:10:58.988Z,17.87
2023-08-08T22:13:31.965Z,17.88
2023-08-08T22:16:04.871Z,17.87
2023-08-08T22:18:37.637Z,17.88
2023-08-08T22:21:11.775Z,17.88
2023-08-08T22:23:44.694Z,17.89
2023-08-08T22:26:17.464Z,17.88
2023-08-08T22:28:50.353Z,17.88
2023-08-08T22:31:23.148Z,17.89
2023-08-08T22:33:55.896Z,17.89
2023-08-08T22:36:31.005Z,17.91
2023-08-08T22:39:04.229Z,17.91
2023-08-08T22:41:36.994Z,17.95
2023-08-08T22:44:09.880Z,17.98
2023-08-08T22:46:42.893Z,18.00
2023-08-08T22:49:15.743Z,18.02
2023-08-08T22:51:50.021Z,18.05
2023-08-08T22:54:22.803Z,18.08
2023-08-08T22:56:55.640Z,18.11
2023-08-08T22:59:28.329Z,18.16
2023-08-08T23:02:01.348Z,18.17
2023-08-08T23:04:34.965Z,18.18
2023-08-08T23:07:09.610Z,18.21
2023-08-08T23:09:42.472Z,18.23
2023-08-08T23:12:15.500Z,18.23
2023-08-08T23:14:48.290Z,18.26
2023-08-08T23:17:21.002Z,18.28
2023-08-08T23:19:53.771Z,18.29
2023-08-08T23:22:27.881Z,18.30
2023-08-08T23:25:00.614Z,18.31
2023-08-08T23:27:33.461Z,18.33
2023-08-08T23:30:06.788Z,18.34
2023-08-08T23:32:44.233Z,18.34
2023-08-08T23:35:23.938Z,18.36
2023-08-08T23:37:57.973Z,18.37
2023-08-08T23:40:30.879Z,18.38
2023-08-08T23:43:04.153Z,18.38
2023-08-08T23:45:37.018Z,18.39
2023-08-08T23:48:09.929Z,18.39
2023-08-08T23:50:43.572Z,18.40
2023-08-08T23:53:17.869Z,18.40
2023-08-08T23:55:50.638Z,18.39
2023-08-08T23:58:23.435Z,18.40
